Impacts METAR Board
IDs:

KSUA - Stuart/Witham Fld, FL, US

Updated at: 1000 UTC 28 Sep 2021
Potential Impact None Slight Moderate High
Time 27/22Z 27/23Z 28/00Z 28/01Z 28/02Z 28/03Z 28/04Z 28/05Z 28/06Z 28/07Z 28/08Z 28/09Z 28/10Z
Temp84 82 79 79 79 81 79 79 77 77 77 73 73
Dewpt64 64 63 63 63 64 63 63 63 61 63 61 63
Altim30.05 30.05 30.06 30.07 30.08 30.07 30.06 30.05 30.04 30.02 30.01 30.01 30.02
VIS10 10 10 10 10 10 10 10 10 10 10 10 10
CIG-- -- -- -- -- -- -- -- -- -- -- -- --
CoverSCTSCTFEWFEW------------------
FltCatVFRVFRVFRVFRVFRVFRVFRVFRVFRVFRVFRVFRVFR
WX--------------------------
WDir606060607060605050506000
WSpd8 8 6 6 6 7 6 6 5 5 3 0 0
WGst-- -- -- -- -- -- -- -- -- -- -- -- --
Raw hourly METARs
KSUA 272150Z 06008KT 10SM SCT044 29/18 A3005 RMK CEILOMETER OTS
KSUA 272250Z 06008KT 10SM SCT040 28/18 A3005 RMK CEILOMETER OTS
KSUA 272348Z 06006KT 10SM FEW036 26/17 A3006 RMK CEILOMETER OTS
KSUA 280048Z 06006KT 10SM FEW036 26/17 A3007 RMK CEILOMETER OTS
KSUA 280155Z AUTO 07006KT 10SM 26/17 A3008 RMK AO2
KSUA 280255Z AUTO 06007KT 10SM 27/18 A3007 RMK AO2
KSUA 280355Z AUTO 06006KT 10SM 26/17 A3006 RMK AO2
KSUA 280455Z AUTO 05006KT 10SM 26/17 A3005 RMK AO2
KSUA 280555Z AUTO 05005KT 10SM 25/17 A3004 RMK AO2
KSUA 280655Z AUTO 05005KT 10SM 25/16 A3002 RMK AO2
KSUA 280755Z AUTO 06003KT 10SM 25/17 A3001 RMK AO2
KSUA 280855Z AUTO 00000KT 10SM 23/16 A3001 RMK AO2
KSUA 280955Z AUTO 00000KT 10SM 23/17 A3002 RMK AO2



Page loaded:  10:16 UTC  |   03:16 AM Pacific  |   04:16 AM Mountain  |   05:16 AM Central  |   06:16 AM Eastern

 

ADVISORIES

FORECASTS

FORECASTS

OBSERVATIONS

USER TOOLS

ABOUT US